TimeEST,TemperatureF,Dew PointF,Humidity,Sea Level PressureIn,VisibilityMPH,Wind Direction,Wind SpeedMPH,Gust SpeedMPH,PrecipitationIn,Events,Conditions,WindDirDegrees,DateUTC
12:56 AM,33.1,21.0,61,30.26,10.0,NW,4.6,-,N/A,,Clear,310,2013-11-28 05:56:00
1:56 AM,28.0,25.0,88,30.26,10.0,Calm,Calm,-,N/A,,Clear,0,2013-11-28 06:56:00
2:56 AM,28.0,24.1,85,30.29,10.0,Calm,Calm,-,N/A,,Clear,0,2013-11-28 07:56:00
3:56 AM,27.0,24.1,89,30.32,10.0,Calm,Calm,-,N/A,,Clear,0,2013-11-28 08:56:00
4:56 AM,26.1,23.0,88,30.34,10.0,Calm,Calm,-,N/A,,Clear,0,2013-11-28 09:56:00
5:56 AM,26.1,23.0,88,30.35,10.0,Calm,Calm,-,N/A,,Clear,0,2013-11-28 10:56:00
6:56 AM,23.0,19.9,88,30.38,10.0,Calm,Calm,-,N/A,,Clear,0,2013-11-28 11:56:00
7:56 AM,25.0,21.9,88,30.39,10.0,South,3.5,-,N/A,,Clear,170,2013-11-28 12:56:00
8:56 AM,30.9,25.0,79,30.43,10.0,Calm,Calm,-,N/A,,Clear,0,2013-11-28 13:56:00
9:56 AM,37.0,19.0,48,30.45,10.0,NE,4.6,-,N/A,,Clear,40,2013-11-28 14:56:00
10:56 AM,39.9,19.9,45,30.45,10.0,North,3.5,-,N/A,,Clear,360,2013-11-28 15:56:00
11:56 AM,43.0,19.0,38,30.43,10.0,NW,4.6,-,N/A,,Clear,320,2013-11-28 16:56:00
12:56 PM,44.1,19.9,38,30.41,10.0,Variable,4.6,-,N/A,,Clear,0,2013-11-28 17:56:00
1:56 PM,46.0,21.0,37,30.40,10.0,Calm,Calm,-,N/A,,Partly Cloudy,0,2013-11-28 18:56:00
2:56 PM,48.9,19.9,32,30.39,10.0,Calm,Calm,-,N/A,,Partly Cloudy,0,2013-11-28 19:56:00
3:56 PM,48.0,19.9,33,30.40,10.0,Calm,Calm,-,N/A,,Scattered Clouds,0,2013-11-28 20:56:00
4:56 PM,46.0,23.0,40,30.42,10.0,SE,5.8,-,N/A,,Scattered Clouds,130,2013-11-28 21:56:00
5:56 PM,44.1,23.0,43,30.44,10.0,Calm,Calm,-,N/A,,Partly Cloudy,0,2013-11-28 22:56:00
6:56 PM,37.9,28.0,68,30.46,10.0,Calm,Calm,-,N/A,,Partly Cloudy,0,2013-11-28 23:56:00
7:56 PM,34.0,28.0,79,30.48,10.0,Calm,Calm,-,N/A,,Clear,0,2013-11-29 00:56:00
8:56 PM,33.1,28.0,82,30.49,10.0,Calm,Calm,-,N/A,,Clear,0,2013-11-29 01:56:00
9:56 PM,32.0,28.0,85,30.50,10.0,Calm,Calm,-,N/A,,Clear,0,2013-11-29 02:56:00
10:56 PM,30.0,27.0,88,30.50,9.0,Calm,Calm,-,N/A,,Clear,0,2013-11-29 03:56:00
11:56 PM,30.0,27.0,88,30.50,10.0,West,3.5,-,N/A,,Clear,270,2013-11-29 04:56:00